Time;durP1;ratioP1;P1;durP2;ratioP2;P2;SDS_P1;SDS_P2;PMS_P1;PMS_P2;Temp;Humidity;BMP_temperature;BMP_pressure;BME280_temperature;BME280_humidity;BME280_pressure;Samples;Min_cycle;Max_cycle;Signal;HPM_P1;HPM_P2
2022/10/11 00:01:35;;;;;;;81.83;76.70;;;10.90;99.90;;;;;;4950339;28;20500;-54
2022/10/11 00:04:01;;;;;;;82.68;77.55;;;10.80;99.90;;;;;;4950785;28;20444;-55
2022/10/11 00:06:26;;;;;;;79.35;74.15;;;10.90;99.90;;;;;;4950873;28;20413;-54
2022/10/11 00:08:52;;;;;;;80.17;75.10;;;10.90;99.90;;;;;;4949295;29;20389;-55
2022/10/11 00:11:17;;;;;;;78.60;73.50;;;10.90;99.90;;;;;;4948582;28;20386;-56
2022/10/11 00:13:43;;;;;;;83.20;77.80;;;10.90;99.90;;;;;;4949248;28;20414;-56
2022/10/11 00:16:10;;;;;;;83.33;78.13;;;10.90;99.90;;;;;;4951144;28;20672;-56
2022/10/11 00:18:36;;;;;;;78.00;72.93;;;10.90;99.90;;;;;;4952694;28;20389;-55
2022/10/11 00:21:10;;;;;;;81.47;76.45;;;10.80;99.90;;;;;;4951961;28;20402;-57
2022/10/11 00:23:37;;;;;;;82.53;77.10;;;10.70;99.90;;;;;;4952214;28;20446;-56
2022/10/11 00:26:05;;;;;;;80.18;75.28;;;10.70;99.90;;;;;;4953059;28;20433;-56
2022/10/11 00:28:31;;;;;;;78.60;73.75;;;10.70;99.90;;;;;;4953633;28;20402;-53
2022/10/11 00:30:56;;;;;;;75.07;70.43;;;10.70;99.90;;;;;;4953744;28;20702;-55
2022/10/11 00:33:22;;;;;;;77.55;72.40;;;10.70;99.90;;;;;;4954034;28;20390;-55
2022/10/11 00:35:48;;;;;;;75.53;70.63;;;10.60;99.90;;;;;;4954652;28;20425;-56
2022/10/11 00:38:14;;;;;;;81.07;76.07;;;10.70;99.90;;;;;;4955148;28;20528;-57
2022/10/11 00:40:39;;;;;;;78.65;73.78;;;10.60;99.90;;;;;;4955842;28;20437;-54
2022/10/11 00:43:18;;;;;;;84.10;78.80;;;10.60;99.90;;;;;;4955071;28;20430;-56
2022/10/11 00:46:03;;;;;;;75.07;70.07;;;10.50;99.90;;;;;;4953130;28;20500;-55
2022/10/11 00:48:33;;;;;;;77.00;72.15;;;10.50;99.90;;;;;;4953625;28;20456;-55
2022/10/11 00:51:03;;;;;;;78.95;74.18;;;10.50;99.90;;;;;;4952897;28;20398;-53
2022/10/11 00:53:30;;;;;;;81.43;76.18;;;10.50;99.90;;;;;;4954135;28;20742;-55
2022/10/11 00:56:06;;;;;;;82.50;77.15;;;10.50;99.90;;;;;;4953059;28;20726;-56
2022/10/11 00:58:35;;;;;;;76.03;71.03;;;10.50;99.90;;;;;;4952586;28;20718;-57
2022/10/11 01:01:01;;;;;;;83.28;78.03;;;10.50;99.90;;;;;;4954341;28;20421;-56
2022/10/11 01:03:28;;;;;;;76.75;71.65;;;10.50;99.90;;;;;;4953508;28;20397;-53
2022/10/11 01:05:54;;;;;;;79.30;74.22;;;10.50;99.90;;;;;;4953794;28;20480;-56
2022/10/11 01:08:20;;;;;;;84.70;79.20;;;10.40;99.90;;;;;;4954737;28;20405;-54
2022/10/11 01:10:46;;;;;;;80.77;75.60;;;10.40;99.90;;;;;;4954634;28;20904;-53
2022/10/11 01:13:31;;;;;;;81.80;76.57;;;10.30;99.90;;;;;;4953429;28;20420;-55
2022/10/11 01:16:14;;;;;;;75.00;69.97;;;10.20;99.90;;;;;;4952994;28;20398;-56
2022/10/11 01:19:05;;;;;;;76.28;71.32;;;10.20;99.90;;;;;;4953525;28;20394;-56
2022/10/11 01:21:46;;;;;;;71.30;66.82;;;10.20;99.90;;;;;;4952701;28;20390;-58
2022/10/11 01:24:56;;;;;;;71.07;66.60;;;10.20;99.90;;;;;;4950673;28;20465;-56
2022/10/11 01:27:28;;;;;;;76.78;71.60;;;10.30;99.90;;;;;;4953155;28;20417;-54
2022/10/11 01:30:15;;;;;;;74.17;69.43;;;10.40;99.90;;;;;;4953874;28;20821;-56
2022/10/11 01:32:57;;;;;;;77.32;72.55;;;10.40;99.90;;;;;;4956438;28;20896;-58
2022/10/11 01:35:32;;;;;;;75.95;71.45;;;10.40;99.90;;;;;;4956987;28;20814;-57
2022/10/11 01:37:57;;;;;;;77.72;72.63;;;10.40;99.90;;;;;;4956840;28;20437;-58
2022/10/11 01:40:31;;;;;;;76.70;71.53;;;10.30;99.90;;;;;;4955777;28;20425;-58
2022/10/11 01:42:58;;;;;;;78.80;73.43;;;10.40;99.90;;;;;;4952465;28;20429;-57
2022/10/11 01:45:24;;;;;;;71.38;66.68;;;10.40;99.90;;;;;;4953916;28;20394;-57
2022/10/11 01:48:08;;;;;;;75.03;70.33;;;10.30;99.90;;;;;;4952960;28;20522;-56
2022/10/11 01:50:44;;;;;;;81.45;76.40;;;10.40;99.90;;;;;;4952851;28;20670;-56
2022/10/11 01:53:47;;;;;;;72.40;67.78;;;10.40;99.90;;;;;;4953676;28;20393;-57
2022/10/11 01:56:37;;;;;;;79.47;74.30;;;10.40;99.90;;;;;;4952284;28;21107;-58
2022/10/11 01:59:19;;;;;;;78.53;73.18;;;10.30;99.90;;;;;;4951753;28;20798;-57
2022/10/11 02:02:41;;;;;;;74.35;69.65;;;10.20;99.90;;;;;;4950984;28;20496;-58
2022/10/11 02:05:31;;;;;;;79.25;74.22;;;10.20;99.90;;;;;;4954796;28;20748;-56
2022/10/11 02:08:20;;;;;;;75.33;70.43;;;10.20;99.90;;;;;;4971475;28;20474;-54
2022/10/11 02:11:06;;;;;;;78.28;73.13;;;10.20;99.90;;;;;;4952672;29;20412;-55
2022/10/11 02:13:39;;;;;;;73.95;69.28;;;10.10;99.90;;;;;;4956071;28;20822;-54
2022/10/11 02:16:10;;;;;;;75.32;70.53;;;10.00;99.90;;;;;;4955162;28;20794;-55
2022/10/11 02:18:42;;;;;;;75.65;70.82;;;10.10;99.90;;;;;;4956138;28;20456;-57
2022/10/11 02:21:11;;;;;;;76.43;71.73;;;10.10;99.90;;;;;;4954444;28;20461;-57
2022/10/11 02:23:47;;;;;;;70.07;65.57;;;10.10;99.90;;;;;;4953465;28;20449;-58
2022/10/11 02:26:13;;;;;;;76.15;71.43;;;10.20;99.90;;;;;;4951839;28;21070;-58
2022/10/11 02:28:41;;;;;;;72.28;67.78;;;10.10;99.90;;;;;;4953374;29;20436;-57
2022/10/11 02:31:09;;;;;;;79.25;74.47;;;10.10;99.90;;;;;;4952837;28;20444;-56
2022/10/11 02:33:44;;;;;;;72.60;67.67;;;10.10;99.90;;;;;;4952413;28;20396;-58
2022/10/11 02:36:30;;;;;;;78.53;73.45;;;10.00;99.90;;;;;;4950410;28;20492;-55
2022/10/11 02:39:02;;;;;;;78.28;73.35;;;10.00;99.90;;;;;;4954050;28;20398;-50
2022/10/11 02:41:37;;;;;;;75.47;70.60;;;10.00;99.90;;;;;;4954160;28;20468;-58
2022/10/11 02:44:11;;;;;;;80.55;75.57;;;10.00;99.90;;;;;;4954789;28;20445;-58
2022/10/11 02:46:38;;;;;;;77.03;72.13;;;10.00;99.90;;;;;;4954418;28;20417;-57
2022/10/11 02:49:06;;;;;;;84.03;78.43;;;10.00;99.90;;;;;;4955298;28;20771;-57
2022/10/11 02:51:32;;;;;;;73.60;69.07;;;10.00;99.90;;;;;;4955888;28;20390;-57
2022/10/11 02:53:58;;;;;;;76.18;71.50;;;9.90;99.90;;;;;;4955766;28;20750;-57
2022/10/11 02:56:23;;;;;;;71.57;67.07;;;9.90;99.90;;;;;;4953286;28;20474;-55
2022/10/11 02:58:49;;;;;;;72.90;68.32;;;9.90;99.90;;;;;;4953164;28;20417;-56
2022/10/11 03:01:14;;;;;;;68.87;64.00;;;9.90;99.90;;;;;;4953233;28;20457;-58
2022/10/11 03:03:40;;;;;;;69.23;64.83;;;9.90;99.90;;;;;;4953340;28;20740;-55
2022/10/11 03:06:06;;;;;;;69.28;65.10;;;9.90;99.90;;;;;;4954278;28;20398;-57
2022/10/11 03:08:32;;;;;;;70.85;66.22;;;9.90;99.90;;;;;;4954238;28;20390;-57
2022/10/11 03:10:57;;;;;;;72.90;68.40;;;10.00;99.90;;;;;;4954111;28;20425;-55
2022/10/11 03:13:45;;;;;;;68.55;64.45;;;10.00;99.90;;;;;;4955436;28;20678;-58
2022/10/11 03:16:11;;;;;;;71.55;66.93;;;9.90;99.90;;;;;;4952706;28;20820;-54
2022/10/11 03:18:36;;;;;;;66.33;61.97;;;9.90;99.90;;;;;;4951226;28;20417;-59
2022/10/11 03:21:02;;;;;;;65.10;61.03;;;9.80;99.90;;;;;;4952000;28;20762;-55
2022/10/11 03:23:28;;;;;;;66.55;62.08;;;9.70;99.90;;;;;;4951905;28;20556;-56
2022/10/11 03:25:53;;;;;;;72.72;67.85;;;9.70;99.90;;;;;;4952168;28;20397;-57
2022/10/11 03:28:19;;;;;;;66.50;62.10;;;9.70;99.90;;;;;;4952302;28;20401;-58
2022/10/11 03:30:49;;;;;;;65.00;60.72;;;9.70;99.90;;;;;;4953303;28;20418;-58
2022/10/11 03:33:18;;;;;;;64.73;60.80;;;9.70;99.90;;;;;;4952702;28;20790;-57
2022/10/11 03:35:45;;;;;;;66.57;62.45;;;9.70;99.90;;;;;;4952613;29;20477;-56
2022/10/11 03:38:17;;;;;;;63.00;59.15;;;9.80;99.90;;;;;;4951837;28;20406;-59
2022/10/11 03:40:43;;;;;;;77.43;72.55;;;9.90;99.90;;;;;;4949825;29;20390;-56
2022/10/11 03:43:09;;;;;;;73.30;68.47;;;9.90;99.90;;;;;;4950185;28;20474;-57
2022/10/11 03:45:35;;;;;;;70.70;65.80;;;9.90;99.90;;;;;;4950253;28;20394;-56
2022/10/11 03:48:01;;;;;;;74.30;69.57;;;9.80;99.90;;;;;;4950828;28;20475;-57
2022/10/11 03:50:27;;;;;;;72.50;67.68;;;9.80;99.90;;;;;;4952463;28;20794;-57
2022/10/11 03:52:53;;;;;;;64.60;60.63;;;9.80;99.90;;;;;;4951909;28;20401;-58
2022/10/11 03:55:18;;;;;;;70.17;65.77;;;9.90;99.90;;;;;;4952372;28;20436;-58
2022/10/11 03:57:44;;;;;;;69.70;65.07;;;9.80;99.90;;;;;;4949350;28;20482;-56
2022/10/11 04:00:10;;;;;;;61.08;56.83;;;9.70;99.90;;;;;;4949697;28;20519;-58
2022/10/11 04:02:35;;;;;;;65.30;61.00;;;9.60;99.90;;;;;;4948985;28;20497;-53
2022/10/11 04:05:02;;;;;;;64.30;60.00;;;9.60;99.90;;;;;;4948936;28;20440;-58
2022/10/11 04:07:28;;;;;;;53.63;50.22;;;9.50;99.90;;;;;;4949755;28;20837;-57
2022/10/11 04:09:53;;;;;;;63.85;59.65;;;9.50;99.90;;;;;;4949687;28;20485;-56
2022/10/11 04:12:19;;;;;;;55.33;51.60;;;9.40;99.90;;;;;;4949645;28;20393;-57
2022/10/11 04:14:44;;;;;;;63.10;58.75;;;9.40;99.90;;;;;;4951393;28;20447;-53
2022/10/11 04:17:10;;;;;;;56.17;52.47;;;9.50;99.90;;;;;;4951008;28;20425;-56
2022/10/11 04:19:36;;;;;;;63.47;59.03;;;9.50;99.90;;;;;;4950528;28;20821;-58
2022/10/11 04:22:03;;;;;;;60.45;56.38;;;9.50;99.90;;;;;;4948718;28;20810;-58
2022/10/11 04:24:28;;;;;;;62.83;58.80;;;9.50;99.90;;;;;;4949424;28;20874;-58
2022/10/11 04:26:54;;;;;;;68.30;63.83;;;9.40;99.90;;;;;;4948969;28;20430;-57
2022/10/11 04:29:20;;;;;;;66.55;62.50;;;9.50;99.90;;;;;;4950125;28;20565;-57
2022/10/11 04:31:46;;;;;;;67.50;63.03;;;9.50;99.90;;;;;;4950365;28;20421;-57
2022/10/11 04:34:11;;;;;;;67.43;62.85;;;9.50;99.90;;;;;;4949986;28;20570;-58
2022/10/11 04:36:37;;;;;;;76.30;71.20;;;9.50;99.90;;;;;;4951179;28;20402;-58
2022/10/11 04:39:04;;;;;;;54.90;51.17;;;9.50;99.90;;;;;;4949849;28;20433;-55
2022/10/11 04:41:30;;;;;;;60.77;56.73;;;9.40;99.90;;;;;;4948174;28;20428;-57
2022/10/11 04:43:55;;;;;;;63.20;59.33;;;9.50;99.90;;;;;;4947215;28;20650;-57
2022/10/11 04:46:21;;;;;;;67.10;62.95;;;9.50;99.90;;;;;;4948087;28;20682;-58
2022/10/11 04:48:46;;;;;;;67.15;62.70;;;9.50;99.90;;;;;;4947082;28;20460;-57
2022/10/11 04:51:12;;;;;;;73.03;68.43;;;9.40;99.90;;;;;;4945629;28;20425;-56
2022/10/11 04:53:37;;;;;;;69.07;64.67;;;9.50;99.90;;;;;;4945946;28;20615;-58
2022/10/11 04:56:06;;;;;;;72.82;68.38;;;9.50;99.90;;;;;;4947032;28;20393;-58
2022/10/11 04:58:33;;;;;;;69.72;65.43;;;9.50;99.90;;;;;;4945985;28;20390;-55
2022/10/11 05:01:00;;;;;;;77.38;72.80;;;9.60;99.90;;;;;;4946649;28;20394;-56
2022/10/11 05:03:26;;;;;;;79.83;74.67;;;9.60;99.90;;;;;;4945830;28;20424;-58
2022/10/11 05:05:52;;;;;;;83.10;78.10;;;9.60;99.90;;;;;;4947653;28;20398;-54
2022/10/11 05:08:17;;;;;;;81.25;75.97;;;9.60;99.90;;;;;;4947490;28;20718;-55
2022/10/11 05:10:54;;;;;;;82.40;77.35;;;9.60;99.90;;;;;;4949036;28;20398;-56
2022/10/11 05:13:20;;;;;;;86.13;80.70;;;9.60;99.90;;;;;;4948555;28;20507;-57
2022/10/11 05:15:45;;;;;;;76.03;71.50;;;9.60;99.90;;;;;;4947300;28;20456;-56
2022/10/11 05:18:11;;;;;;;80.07;75.10;;;9.50;99.90;;;;;;4946447;28;20432;-56
2022/10/11 05:20:36;;;;;;;76.47;71.57;;;9.50;99.90;;;;;;4947003;28;20398;-58
2022/10/11 05:23:02;;;;;;;78.37;73.23;;;9.50;99.90;;;;;;4946683;28;20766;-54
2022/10/11 05:25:27;;;;;;;76.13;71.63;;;9.50;99.90;;;;;;4946430;28;20393;-57
2022/10/11 05:27:53;;;;;;;86.47;81.17;;;9.50;99.90;;;;;;4946101;28;20467;-58
2022/10/11 05:30:19;;;;;;;79.53;74.63;;;9.50;99.90;;;;;;4945315;28;20394;-57
2022/10/11 05:32:44;;;;;;;80.65;75.85;;;9.50;99.90;;;;;;4947113;28;20695;-54
2022/10/11 05:35:10;;;;;;;80.07;75.18;;;9.50;99.90;;;;;;4947352;28;20589;-56
2022/10/11 05:37:35;;;;;;;75.30;70.63;;;9.50;99.90;;;;;;4945453;28;20394;-56
2022/10/11 05:40:01;;;;;;;78.00;73.10;;;9.50;99.90;;;;;;4946844;28;20382;-56
2022/10/11 05:42:26;;;;;;;79.13;74.18;;;9.50;99.90;;;;;;4944868;28;20393;-58
2022/10/11 05:44:52;;;;;;;67.27;62.90;;;9.40;99.90;;;;;;4943761;28;20542;-57
2022/10/11 05:47:17;;;;;;;69.00;64.27;;;9.40;99.90;;;;;;4943216;28;20716;-58
2022/10/11 05:49:45;;;;;;;69.90;65.43;;;9.40;99.90;;;;;;4943368;29;22194;-57
2022/10/11 05:52:12;;;;;;;70.37;65.50;;;9.30;99.90;;;;;;4943149;28;20997;-58
2022/10/11 05:54:37;;;;;;;63.22;59.35;;;9.20;99.90;;;;;;4942408;28;20746;-56
2022/10/11 05:57:03;;;;;;;63.70;59.75;;;9.30;99.90;;;;;;4939898;28;20805;-55
2022/10/11 05:59:28;;;;;;;67.97;63.45;;;9.30;99.90;;;;;;4940791;28;20492;-56
2022/10/11 06:01:54;;;;;;;70.07;65.67;;;9.40;99.90;;;;;;4938967;28;20382;-56
2022/10/11 06:04:20;;;;;;;67.47;63.67;;;9.40;99.90;;;;;;4939548;28;20409;-58
2022/10/11 06:06:45;;;;;;;74.85;69.88;;;9.50;99.90;;;;;;4941174;28;20722;-56
2022/10/11 06:09:11;;;;;;;73.87;69.40;;;9.50;99.90;;;;;;4941232;28;20405;-54
2022/10/11 06:11:40;;;;;;;83.45;78.63;;;9.60;99.90;;;;;;4940617;28;20468;-59
2022/10/11 06:14:05;;;;;;;82.47;77.18;;;9.60;99.90;;;;;;4940926;28;20386;-57
2022/10/11 06:16:31;;;;;;;85.73;80.23;;;9.60;99.90;;;;;;4940046;28;20398;-54
2022/10/11 06:18:57;;;;;;;78.30;73.57;;;9.50;99.90;;;;;;4938912;28;20410;-53
2022/10/11 06:21:23;;;;;;;82.68;77.70;;;9.50;99.90;;;;;;4937577;28;20802;-55
2022/10/11 06:24:00;;;;;;;76.60;72.03;;;9.50;99.90;;;;;;4936482;28;20492;-58
2022/10/11 06:26:26;;;;;;;74.35;70.05;;;9.60;99.90;;;;;;4938842;28;20768;-57
2022/10/11 06:28:51;;;;;;;85.37;79.87;;;9.60;99.90;;;;;;4938923;28;20394;-53
2022/10/11 06:31:17;;;;;;;84.67;79.37;;;9.60;99.90;;;;;;4938195;28;20477;-58
2022/10/11 06:33:43;;;;;;;82.90;78.07;;;9.60;99.90;;;;;;4937030;28;20521;-55
2022/10/11 06:36:13;;;;;;;77.55;73.05;;;9.60;99.90;;;;;;4934576;28;20686;-58
2022/10/11 06:38:39;;;;;;;81.70;76.82;;;9.70;99.90;;;;;;4935507;28;20767;-58
2022/10/11 06:41:20;;;;;;;84.32;79.57;;;9.70;99.90;;;;;;4935385;28;20390;-58
2022/10/11 06:43:48;;;;;;;81.67;76.93;;;9.80;99.90;;;;;;4933091;28;20809;-55
2022/10/11 06:46:14;;;;;;;89.22;83.82;;;9.80;99.90;;;;;;4935589;28;20482;-55
2022/10/11 06:48:42;;;;;;;86.75;81.53;;;9.90;99.90;;;;;;4935970;28;20969;-58
2022/10/11 06:51:09;;;;;;;85.05;79.90;;;9.90;99.90;;;;;;4938012;28;20393;-58
2022/10/11 06:53:35;;;;;;;87.80;82.00;;;9.90;99.90;;;;;;4935271;28;20817;-55
2022/10/11 06:56:02;;;;;;;87.27;81.63;;;9.90;99.90;;;;;;4934815;28;20474;-56
2022/10/11 06:58:28;;;;;;;87.82;82.32;;;9.90;99.90;;;;;;4934016;28;20545;-58
2022/10/11 07:00:53;;;;;;;85.37;80.10;;;9.90;99.90;;;;;;4933282;28;20397;-58
2022/10/11 07:03:19;;;;;;;82.73;77.73;;;9.90;99.90;;;;;;4931891;28;20668;-56
2022/10/11 07:05:45;;;;;;;89.10;83.90;;;9.90;99.90;;;;;;4929667;28;21011;-58
2022/10/11 07:08:10;;;;;;;92.47;86.83;;;10.00;99.90;;;;;;4927837;28;20543;-57
2022/10/11 07:10:36;;;;;;;81.00;76.30;;;10.00;99.90;;;;;;4929416;28;20390;-57
2022/10/11 07:13:02;;;;;;;88.13;82.75;;;10.00;99.90;;;;;;4927027;28;20682;-58
2022/10/11 07:15:27;;;;;;;83.43;78.20;;;10.10;99.90;;;;;;4928319;28;20389;-58
2022/10/11 07:17:53;;;;;;;84.45;79.43;;;10.10;99.90;;;;;;4925187;28;20409;-57
2022/10/11 07:20:18;;;;;;;82.77;77.40;;;10.10;99.90;;;;;;4924498;28;20409;-57
2022/10/11 07:22:44;;;;;;;76.32;71.43;;;10.20;99.90;;;;;;4927934;28;20495;-55
2022/10/11 07:25:09;;;;;;;73.68;69.07;;;10.10;99.90;;;;;;4930475;28;20390;-57
2022/10/11 07:27:35;;;;;;;70.57;66.17;;;10.10;99.90;;;;;;4927014;28;20552;-58
2022/10/11 07:30:01;;;;;;;73.07;68.67;;;10.20;99.90;;;;;;4927456;28;20394;-63
2022/10/11 07:32:26;;;;;;;70.35;65.93;;;10.20;99.90;;;;;;4926702;28;20461;-56
2022/10/11 07:34:52;;;;;;;73.15;68.88;;;10.30;99.90;;;;;;4927330;28;21123;-55
2022/10/11 07:37:17;;;;;;;75.97;71.23;;;10.30;99.90;;;;;;4928406;28;20398;-57
2022/10/11 07:39:43;;;;;;;75.28;70.50;;;10.40;99.90;;;;;;4926234;28;20550;-56
2022/10/11 07:42:09;;;;;;;71.93;67.10;;;10.40;99.90;;;;;;4926713;28;20475;-54
2022/10/11 07:44:35;;;;;;;75.37;70.57;;;10.40;99.90;;;;;;4929715;28;20393;-57
2022/10/11 07:47:00;;;;;;;70.43;65.78;;;10.50;99.90;;;;;;4932442;28;20651;-57
2022/10/11 07:49:26;;;;;;;42.22;39.13;;;10.50;99.90;;;;;;4935114;28;20428;-55
2022/10/11 07:51:51;;;;;;;43.30;40.13;;;10.50;99.90;;;;;;4933451;28;20719;-58
2022/10/11 07:54:17;;;;;;;42.88;39.78;;;10.50;99.90;;;;;;4936095;28;20425;-57
2022/10/11 07:56:43;;;;;;;41.45;38.75;;;10.50;99.90;;;;;;4938666;28;20883;-56
2022/10/11 07:59:09;;;;;;;43.37;39.83;;;10.60;99.90;;;;;;4935360;28;20405;-58
2022/10/11 08:01:35;;;;;;;40.25;37.40;;;10.60;99.90;;;;;;4932382;28;20640;-56
2022/10/11 08:04:00;;;;;;;37.58;35.28;;;10.70;99.90;;;;;;4933983;28;20417;-58
2022/10/11 08:06:31;;;;;;;37.72;35.05;;;10.70;99.90;;;;;;4936102;28;20409;-57
2022/10/11 08:08:59;;;;;;;37.88;35.05;;;10.70;99.90;;;;;;4943049;28;20460;-57
2022/10/11 08:11:31;;;;;;;36.78;34.35;;;10.60;99.90;;;;;;4943187;28;20398;-56
2022/10/11 08:13:58;;;;;;;38.63;35.83;;;10.70;99.90;;;;;;4941157;28;21147;-54
2022/10/11 08:16:24;;;;;;;37.65;34.88;;;10.80;99.90;;;;;;4942023;29;20386;-58
2022/10/11 08:18:49;;;;;;;38.40;35.20;;;10.80;99.90;;;;;;4942333;28;20417;-56
2022/10/11 08:21:17;;;;;;;40.37;37.43;;;10.80;99.90;;;;;;4942717;28;20393;-58
2022/10/11 08:23:42;;;;;;;38.67;35.63;;;10.80;99.90;;;;;;4944854;28;20841;-57
2022/10/11 08:26:08;;;;;;;35.55;32.92;;;10.80;99.90;;;;;;4943713;28;20817;-52
2022/10/11 08:28:34;;;;;;;36.08;32.63;;;10.90;99.90;;;;;;4939207;28;20398;-56
2022/10/11 08:31:01;;;;;;;38.55;35.53;;;10.90;99.90;;;;;;4938756;28;20520;-56
2022/10/11 08:33:27;;;;;;;36.83;34.08;;;10.90;99.90;;;;;;4939971;29;20433;-57
2022/10/11 08:35:54;;;;;;;37.53;34.60;;;11.00;99.90;;;;;;4940493;28;20539;-55
2022/10/11 08:38:20;;;;;;;35.50;32.97;;;11.00;99.90;;;;;;4943242;28;20679;-54
2022/10/11 08:40:47;;;;;;;35.50;32.83;;;10.90;99.90;;;;;;4940344;28;20416;-56
2022/10/11 08:43:45;;;;;;;34.63;32.10;;;11.00;99.90;;;;;;4943081;28;20386;-55
2022/10/11 08:46:13;;;;;;;34.55;32.03;;;11.10;99.90;;;;;;4946085;28;20393;-55
2022/10/11 08:48:46;;;;;;;34.72;32.08;;;11.20;99.90;;;;;;4941894;28;20493;-49
2022/10/11 08:51:31;;;;;;;34.53;31.92;;;11.20;99.90;;;;;;4942305;28;20402;-53
2022/10/11 08:54:10;;;;;;;35.03;32.25;;;11.30;99.90;;;;;;4939540;28;20392;-51
2022/10/11 08:56:38;;;;;;;36.45;33.63;;;11.40;99.90;;;;;;4938900;28;20420;-54
2022/10/11 08:59:10;;;;;;;36.15;33.50;;;11.40;99.90;;;;;;4938634;28;20389;-51
2022/10/11 09:01:42;;;;;;;37.78;35.08;;;11.50;99.90;;;;;;4939013;28;20386;-51
2022/10/11 09:04:15;;;;;;;37.03;34.63;;;11.60;99.90;;;;;;4940310;28;20480;-51
2022/10/11 09:07:18;;;;;;;36.63;33.83;;;11.60;99.90;;;;;;4943777;28;20460;-54
2022/10/11 09:10:06;;;;;;;36.25;33.53;;;11.60;99.90;;;;;;4948996;28;20872;-56
2022/10/11 09:12:46;;;;;;;37.88;35.13;;;11.70;99.90;;;;;;4943048;28;20386;-58
2022/10/11 09:15:45;;;;;;;37.70;35.37;;;11.70;99.90;;;;;;4940293;28;20409;-57
2022/10/11 09:18:23;;;;;;;39.75;36.80;;;11.70;99.90;;;;;;4943546;28;20398;-58
2022/10/11 09:20:58;;;;;;;40.88;37.80;;;11.70;99.90;;;;;;4940000;28;20852;-58
2022/10/11 09:23:57;;;;;;;39.05;36.30;;;11.70;99.90;;;;;;4943901;28;20806;-58
2022/10/11 09:26:30;;;;;;;37.88;35.17;;;11.80;99.90;;;;;;4945035;28;20401;-58
2022/10/11 09:29:13;;;;;;;37.17;34.75;;;11.90;99.90;;;;;;4945342;28;20405;-58
2022/10/11 09:31:39;;;;;;;39.72;37.03;;;12.00;99.90;;;;;;4948932;28;20418;-57
2022/10/11 09:34:12;;;;;;;39.92;37.33;;;12.10;99.90;;;;;;4948796;28;20734;-58
2022/10/11 09:36:43;;;;;;;35.37;32.70;;;12.10;99.90;;;;;;4948719;28;20885;-58
2022/10/11 09:39:27;;;;;;;40.63;37.50;;;12.10;99.90;;;;;;4948091;28;20682;-57
2022/10/11 09:42:08;;;;;;;37.17;34.50;;;12.20;99.90;;;;;;4948256;28;20736;-57
2022/10/11 09:44:38;;;;;;;37.60;34.70;;;12.30;99.90;;;;;;4950176;28;20401;-56
2022/10/11 09:47:05;;;;;;;39.05;36.17;;;12.30;99.90;;;;;;4949763;28;20414;-53
2022/10/11 09:49:47;;;;;;;39.50;36.63;;;12.30;99.90;;;;;;4949693;28;20405;-58
2022/10/11 09:52:18;;;;;;;36.40;33.78;;;12.30;99.90;;;;;;4949142;28;20386;-56
2022/10/11 09:54:47;;;;;;;35.88;33.30;;;12.40;99.90;;;;;;4949814;28;20413;-57
2022/10/11 09:57:19;;;;;;;38.40;35.60;;;12.50;99.90;;;;;;4948505;28;20389;-58
2022/10/11 10:00:02;;;;;;;40.65;37.75;;;12.50;99.90;;;;;;4948040;29;20432;-53
2022/10/11 10:02:29;;;;;;;40.40;37.20;;;12.60;99.90;;;;;;4944784;28;20500;-57
2022/10/11 10:05:07;;;;;;;38.73;35.80;;;12.70;99.90;;;;;;4940537;28;20406;-58
2022/10/11 10:07:34;;;;;;;44.58;41.25;;;12.80;99.90;;;;;;4940699;28;20417;-58
2022/10/11 10:10:25;;;;;;;41.47;38.35;;;13.10;99.90;;;;;;4943673;28;20910;-57
2022/10/11 10:12:55;;;;;;;40.78;37.75;;;13.30;99.90;;;;;;4943688;28;20386;-58
2022/10/11 10:15:25;;;;;;;40.42;37.47;;;13.60;99.90;;;;;;4946057;28;20876;-58
2022/10/11 10:17:52;;;;;;;40.97;37.93;;;13.80;99.90;;;;;;4942316;28;20389;-58
2022/10/11 10:20:32;;;;;;;43.40;39.92;;;13.90;99.90;;;;;;4943716;28;20501;-58
2022/10/11 10:23:07;;;;;;;38.47;35.78;;;13.80;99.90;;;;;;4946668;28;20485;-58
2022/10/11 10:25:36;;;;;;;40.10;37.03;;;13.60;99.90;;;;;;4945399;28;20393;-54
2022/10/11 10:28:16;;;;;;;43.92;41.00;;;13.70;99.90;;;;;;4942437;28;20414;-58
2022/10/11 10:30:56;;;;;;;39.15;36.25;;;13.70;99.90;;;;;;4940991;28;20406;-58
2022/10/11 10:33:24;;;;;;;40.08;37.22;;;13.70;99.90;;;;;;4943443;28;20437;-58
2022/10/11 10:35:59;;;;;;;39.38;36.20;;;13.70;99.90;;;;;;4941846;28;20398;-58
2022/10/11 10:38:39;;;;;;;39.42;36.92;;;13.50;99.90;;;;;;4940922;28;20413;-58
2022/10/11 10:41:10;;;;;;;39.65;36.70;;;13.80;99.90;;;;;;4935769;28;20417;-57
2022/10/11 10:43:38;;;;;;;39.88;37.15;;;14.20;99.90;;;;;;4938146;28;20625;-56
2022/10/11 10:46:38;;;;;;;43.70;40.97;;;14.50;99.90;;;;;;4938260;28;20609;-58
2022/10/11 10:49:29;;;;;;;53.13;49.58;;;14.80;99.90;;;;;;4937176;28;20920;-57
2022/10/11 10:52:22;;;;;;;47.72;44.47;;;14.90;99.90;;;;;;4933318;29;20390;-58
2022/10/11 10:55:29;;;;;;;44.67;41.60;;;14.90;99.90;;;;;;4936376;28;20425;-53
2022/10/11 10:58:13;;;;;;;47.60;44.38;;;14.90;99.90;;;;;;4940206;29;20820;-55
2022/10/11 11:00:50;;;;;;;45.95;42.80;;;14.90;99.90;;;;;;4939070;28;20522;-55
2022/10/11 11:03:34;;;;;;;49.93;46.57;;;14.90;99.90;;;;;;4939631;28;20870;-58
2022/10/11 11:06:05;;;;;;;48.05;45.05;;;15.00;99.90;;;;;;4944310;28;20414;-56
2022/10/11 11:08:59;;;;;;;49.58;46.15;;;15.00;99.90;;;;;;4945806;28;20903;-57
2022/10/11 11:11:52;;;;;;;46.67;43.58;;;15.00;99.90;;;;;;4943441;28;21069;-57
2022/10/11 11:14:46;;;;;;;51.85;48.10;;;14.90;99.90;;;;;;4942665;28;20390;-55
2022/10/11 11:17:28;;;;;;;47.20;44.15;;;14.70;99.90;;;;;;4944353;28;20409;-57
2022/10/11 11:20:26;;;;;;;47.95;44.55;;;14.50;99.90;;;;;;4941980;28;20410;-58
2022/10/11 11:23:07;;;;;;;50.42;46.75;;;14.50;99.90;;;;;;4939125;29;20522;-57
2022/10/11 11:25:36;;;;;;;51.07;47.70;;;14.40;99.90;;;;;;4937363;28;20405;-57
2022/10/11 11:28:05;;;;;;;56.92;53.00;;;14.30;99.90;;;;;;4941519;28;20416;-58
2022/10/11 11:30:45;;;;;;;55.85;51.97;;;14.20;99.90;;;;;;4942263;28;20382;-58
2022/10/11 11:33:23;;;;;;;54.03;50.30;;;14.20;99.90;;;;;;4939345;28;20817;-58
2022/10/11 11:35:52;;;;;;;54.13;50.40;;;14.30;99.90;;;;;;4937970;28;20477;-58
2022/10/11 11:38:20;;;;;;;51.88;48.30;;;14.30;99.90;;;;;;4939469;28;20406;-57
2022/10/11 11:40:56;;;;;;;55.28;51.55;;;14.40;99.90;;;;;;4941209;28;20394;-56
2022/10/11 11:43:35;;;;;;;52.90;48.92;;;14.50;99.90;;;;;;4941960;28;20401;-58
2022/10/11 11:46:08;;;;;;;49.83;46.33;;;14.30;99.90;;;;;;4940454;28;20390;-57
2022/10/11 11:48:35;;;;;;;50.42;46.95;;;14.30;99.90;;;;;;4940135;28;20901;-59
2022/10/11 11:51:03;;;;;;;57.55;53.35;;;14.30;99.90;;;;;;4941524;28;20471;-57
2022/10/11 11:53:50;;;;;;;53.65;49.97;;;14.30;99.90;;;;;;4940013;28;20400;-58
2022/10/11 11:56:32;;;;;;;60.20;55.95;;;14.50;99.90;;;;;;4937866;28;20864;-57
2022/10/11 11:59:36;;;;;;;56.67;52.58;;;14.50;99.90;;;;;;4935980;28;20401;-58
2022/10/11 12:02:20;;;;;;;61.35;57.28;;;14.40;99.90;;;;;;4944280;28;20429;-59
2022/10/11 12:04:48;;;;;;;59.67;55.67;;;14.50;99.90;;;;;;4934331;28;20920;-56
2022/10/11 12:07:20;;;;;;;59.83;55.77;;;14.50;99.90;;;;;;4938630;28;20422;-57
2022/10/11 12:09:49;;;;;;;57.83;54.20;;;14.50;99.90;;;;;;4935120;28;20480;-58
2022/10/11 12:12:37;;;;;;;57.90;54.15;;;14.50;99.90;;;;;;4936651;29;20512;-58
2022/10/11 12:15:08;;;;;;;63.55;59.45;;;14.60;99.90;;;;;;4932739;28;20489;-58
2022/10/11 12:17:57;;;;;;;59.30;55.60;;;14.60;99.90;;;;;;4931260;28;20456;-58
2022/10/11 12:20:30;;;;;;;59.50;55.85;;;14.60;99.90;;;;;;4931647;28;20405;-57
2022/10/11 12:23:01;;;;;;;61.15;57.00;;;14.50;99.90;;;;;;4929377;28;20553;-57
2022/10/11 12:25:32;;;;;;;65.13;60.67;;;14.50;99.90;;;;;;4923240;28;20652;-57
2022/10/11 12:28:00;;;;;;;57.65;53.50;;;14.40;99.90;;;;;;4925018;28;20747;-59
2022/10/11 12:30:47;;;;;;;63.72;59.63;;;14.40;99.90;;;;;;4928490;28;20409;-58
2022/10/11 12:33:15;;;;;;;64.13;60.03;;;14.50;99.90;;;;;;4931182;28;20582;-59
2022/10/11 12:35:53;;;;;;;64.65;60.33;;;14.50;99.90;;;;;;4930471;28;20522;-59
2022/10/11 12:38:24;;;;;;;55.45;51.63;;;14.60;99.90;;;;;;4926437;28;20398;-56
2022/10/11 12:41:01;;;;;;;60.37;56.37;;;14.70;99.90;;;;;;4926695;28;20457;-57
2022/10/11 12:43:34;;;;;;;63.37;59.23;;;14.80;99.90;;;;;;4926019;28;20730;-59
2022/10/11 12:46:26;;;;;;;62.60;58.28;;;14.80;99.90;;;;;;4925538;28;20639;-59
2022/10/11 12:49:13;;;;;;;58.08;53.97;;;14.80;99.90;;;;;;4923176;29;20522;-58
2022/10/11 12:51:49;;;;;;;56.00;52.08;;;14.70;99.90;;;;;;4938826;28;20393;-55
2022/10/11 12:54:36;;;;;;;55.00;51.27;;;14.70;99.90;;;;;;4931389;28;20635;-58